sensor_id;sensor_type;location;lat;lon;timestamp;P1;durP1;ratioP1;P2;durP2;ratioP2
25381;SDS011;16307;42.896;20.874;2022-09-09T00:05:20;15.00;;;8.23;;
25381;SDS011;16307;42.896;20.874;2022-09-09T00:08:25;13.55;;;8.93;;
25381;SDS011;16307;42.896;20.874;2022-09-09T00:11:28;18.27;;;8.68;;
25381;SDS011;16307;42.896;20.874;2022-09-09T00:14:55;16.50;;;8.38;;
25381;SDS011;16307;42.896;20.874;2022-09-09T00:17:55;18.95;;;7.93;;
25381;SDS011;16307;42.896;20.874;2022-09-09T00:20:44;13.63;;;8.40;;
25381;SDS011;16307;42.896;20.874;2022-09-09T00:23:54;17.92;;;8.68;;
25381;SDS011;16307;42.896;20.874;2022-09-09T00:26:45;15.57;;;8.60;;
25381;SDS011;16307;42.896;20.874;2022-09-09T00:32:24;17.15;;;10.38;;
25381;SDS011;16307;42.896;20.874;2022-09-09T00:38:23;20.00;;;9.55;;
25381;SDS011;16307;42.896;20.874;2022-09-09T00:41:14;16.60;;;9.45;;
25381;SDS011;16307;42.896;20.874;2022-09-09T00:56:38;14.88;;;8.55;;
25381;SDS011;16307;42.896;20.874;2022-09-09T00:59:48;16.25;;;8.52;;
25381;SDS011;16307;42.896;20.874;2022-09-09T01:05:37;17.08;;;9.85;;
25381;SDS011;16307;42.896;20.874;2022-09-09T01:08:34;19.15;;;9.70;;
25381;SDS011;16307;42.896;20.874;2022-09-09T01:12:07;18.70;;;9.43;;
25381;SDS011;16307;42.896;20.874;2022-09-09T01:14:51;20.67;;;9.93;;
25381;SDS011;16307;42.896;20.874;2022-09-09T01:17:46;15.90;;;8.80;;
25381;SDS011;16307;42.896;20.874;2022-09-09T01:20:40;17.02;;;10.18;;
25381;SDS011;16307;42.896;20.874;2022-09-09T01:26:43;15.43;;;10.18;;
25381;SDS011;16307;42.896;20.874;2022-09-09T01:29:40;15.88;;;9.35;;
25381;SDS011;16307;42.896;20.874;2022-09-09T01:32:46;15.93;;;9.73;;
25381;SDS011;16307;42.896;20.874;2022-09-09T01:41:12;17.85;;;9.90;;
25381;SDS011;16307;42.896;20.874;2022-09-09T01:44:21;19.17;;;10.23;;
25381;SDS011;16307;42.896;20.874;2022-09-09T01:47:07;17.85;;;10.43;;
25381;SDS011;16307;42.896;20.874;2022-09-09T01:50:07;16.00;;;10.50;;
25381;SDS011;16307;42.896;20.874;2022-09-09T01:52:58;17.92;;;9.85;;
25381;SDS011;16307;42.896;20.874;2022-09-09T01:56:02;15.63;;;9.63;;
25381;SDS011;16307;42.896;20.874;2022-09-09T02:04:45;14.25;;;9.68;;
25381;SDS011;16307;42.896;20.874;2022-09-09T02:10:57;18.05;;;9.75;;
25381;SDS011;16307;42.896;20.874;2022-09-09T02:14:15;16.38;;;9.85;;
25381;SDS011;16307;42.896;20.874;2022-09-09T02:17:08;17.75;;;10.93;;
25381;SDS011;16307;42.896;20.874;2022-09-09T02:20:14;14.93;;;10.07;;
25381;SDS011;16307;42.896;20.874;2022-09-09T02:23:26;16.20;;;9.77;;
25381;SDS011;16307;42.896;20.874;2022-09-09T02:26:13;18.55;;;9.55;;
25381;SDS011;16307;42.896;20.874;2022-09-09T02:29:11;17.85;;;9.75;;
25381;SDS011;16307;42.896;20.874;2022-09-09T02:32:01;15.90;;;9.23;;
25381;SDS011;16307;42.896;20.874;2022-09-09T02:34:57;17.60;;;10.75;;
25381;SDS011;16307;42.896;20.874;2022-09-09T02:37:46;20.98;;;10.13;;
25381;SDS011;16307;42.896;20.874;2022-09-09T02:40:33;16.50;;;9.65;;
25381;SDS011;16307;42.896;20.874;2022-09-09T02:43:22;15.57;;;10.15;;
25381;SDS011;16307;42.896;20.874;2022-09-09T02:49:31;14.98;;;9.02;;
25381;SDS011;16307;42.896;20.874;2022-09-09T02:56:18;15.43;;;9.55;;
25381;SDS011;16307;42.896;20.874;2022-09-09T02:59:07;14.32;;;8.98;;
25381;SDS011;16307;42.896;20.874;2022-09-09T03:01:54;14.55;;;8.82;;
25381;SDS011;16307;42.896;20.874;2022-09-09T03:04:42;17.15;;;10.48;;
25381;SDS011;16307;42.896;20.874;2022-09-09T03:07:31;16.55;;;9.40;;
25381;SDS011;16307;42.896;20.874;2022-09-09T03:10:18;16.67;;;9.60;;
25381;SDS011;16307;42.896;20.874;2022-09-09T03:13:05;16.55;;;9.38;;
25381;SDS011;16307;42.896;20.874;2022-09-09T03:15:55;16.40;;;9.90;;
25381;SDS011;16307;42.896;20.874;2022-09-09T03:18:42;15.82;;;8.70;;
25381;SDS011;16307;42.896;20.874;2022-09-09T03:21:30;14.05;;;9.23;;
25381;SDS011;16307;42.896;20.874;2022-09-09T03:24:17;14.82;;;9.15;;
25381;SDS011;16307;42.896;20.874;2022-09-09T03:27:03;17.60;;;8.32;;
25381;SDS011;16307;42.896;20.874;2022-09-09T03:29:49;16.83;;;8.75;;
25381;SDS011;16307;42.896;20.874;2022-09-09T03:32:41;17.23;;;9.23;;
25381;SDS011;16307;42.896;20.874;2022-09-09T03:35:33;16.40;;;8.90;;
25381;SDS011;16307;42.896;20.874;2022-09-09T03:38:20;13.43;;;8.52;;
25381;SDS011;16307;42.896;20.874;2022-09-09T03:41:06;16.55;;;8.82;;
25381;SDS011;16307;42.896;20.874;2022-09-09T03:43:54;16.63;;;9.07;;
25381;SDS011;16307;42.896;20.874;2022-09-09T03:46:42;19.70;;;9.23;;
25381;SDS011;16307;42.896;20.874;2022-09-09T03:49:28;16.65;;;8.95;;
25381;SDS011;16307;42.896;20.874;2022-09-09T03:52:15;14.38;;;8.73;;
25381;SDS011;16307;42.896;20.874;2022-09-09T03:55:08;16.65;;;9.13;;
25381;SDS011;16307;42.896;20.874;2022-09-09T03:57:55;19.27;;;8.75;;
25381;SDS011;16307;42.896;20.874;2022-09-09T04:00:42;21.00;;;9.82;;
25381;SDS011;16307;42.896;20.874;2022-09-09T04:03:28;18.25;;;9.00;;
25381;SDS011;16307;42.896;20.874;2022-09-09T04:06:15;21.92;;;10.10;;
25381;SDS011;16307;42.896;20.874;2022-09-09T04:09:04;13.55;;;9.27;;
25381;SDS011;16307;42.896;20.874;2022-09-09T04:11:52;18.55;;;9.70;;
25381;SDS011;16307;42.896;20.874;2022-09-09T04:14:38;15.40;;;9.32;;
25381;SDS011;16307;42.896;20.874;2022-09-09T04:17:25;13.90;;;8.80;;
25381;SDS011;16307;42.896;20.874;2022-09-09T04:20:11;16.70;;;9.27;;
25381;SDS011;16307;42.896;20.874;2022-09-09T04:22:57;16.00;;;9.50;;
25381;SDS011;16307;42.896;20.874;2022-09-09T04:25:47;17.65;;;9.63;;
25381;SDS011;16307;42.896;20.874;2022-09-09T04:28:35;19.55;;;10.10;;
25381;SDS011;16307;42.896;20.874;2022-09-09T04:31:25;17.25;;;10.23;;
25381;SDS011;16307;42.896;20.874;2022-09-09T04:34:14;20.55;;;10.50;;
25381;SDS011;16307;42.896;20.874;2022-09-09T04:37:00;21.13;;;10.15;;
25381;SDS011;16307;42.896;20.874;2022-09-09T04:39:47;26.67;;;10.73;;
25381;SDS011;16307;42.896;20.874;2022-09-09T04:42:35;23.02;;;11.27;;
25381;SDS011;16307;42.896;20.874;2022-09-09T04:45:22;17.13;;;9.73;;
25381;SDS011;16307;42.896;20.874;2022-09-09T04:48:08;20.90;;;10.32;;
25381;SDS011;16307;42.896;20.874;2022-09-09T04:50:56;26.35;;;10.73;;
25381;SDS011;16307;42.896;20.874;2022-09-09T04:53:51;23.60;;;10.68;;
25381;SDS011;16307;42.896;20.874;2022-09-09T04:56:40;22.50;;;10.70;;
25381;SDS011;16307;42.896;20.874;2022-09-09T04:59:29;20.15;;;9.85;;
25381;SDS011;16307;42.896;20.874;2022-09-09T05:02:18;19.50;;;10.60;;
25381;SDS011;16307;42.896;20.874;2022-09-09T05:05:05;18.05;;;9.65;;
25381;SDS011;16307;42.896;20.874;2022-09-09T05:07:52;17.95;;;10.18;;
25381;SDS011;16307;42.896;20.874;2022-09-09T05:10:38;18.70;;;10.20;;
25381;SDS011;16307;42.896;20.874;2022-09-09T05:13:25;15.23;;;9.52;;
25381;SDS011;16307;42.896;20.874;2022-09-09T05:16:14;15.55;;;9.00;;
25381;SDS011;16307;42.896;20.874;2022-09-09T05:19:00;22.85;;;9.90;;
25381;SDS011;16307;42.896;20.874;2022-09-09T05:21:59;17.77;;;10.70;;
25381;SDS011;16307;42.896;20.874;2022-09-09T05:24:54;19.50;;;10.68;;
25381;SDS011;16307;42.896;20.874;2022-09-09T05:27:40;27.38;;;11.15;;
25381;SDS011;16307;42.896;20.874;2022-09-09T05:30:26;17.70;;;11.13;;
25381;SDS011;16307;42.896;20.874;2022-09-09T05:33:12;21.90;;;10.15;;
25381;SDS011;16307;42.896;20.874;2022-09-09T05:35:59;19.23;;;10.73;;
25381;SDS011;16307;42.896;20.874;2022-09-09T05:38:47;23.95;;;11.13;;
25381;SDS011;16307;42.896;20.874;2022-09-09T05:41:34;19.42;;;10.77;;
25381;SDS011;16307;42.896;20.874;2022-09-09T05:44:22;19.38;;;10.55;;
25381;SDS011;16307;42.896;20.874;2022-09-09T05:47:11;19.70;;;11.18;;
25381;SDS011;16307;42.896;20.874;2022-09-09T05:49:57;21.45;;;11.63;;
25381;SDS011;16307;42.896;20.874;2022-09-09T05:52:43;21.90;;;12.10;;
25381;SDS011;16307;42.896;20.874;2022-09-09T05:55:30;22.63;;;11.70;;
25381;SDS011;16307;42.896;20.874;2022-09-09T05:58:17;22.92;;;11.20;;
25381;SDS011;16307;42.896;20.874;2022-09-09T06:01:04;26.65;;;14.10;;
25381;SDS011;16307;42.896;20.874;2022-09-09T06:03:55;29.92;;;18.45;;
25381;SDS011;16307;42.896;20.874;2022-09-09T06:06:42;31.55;;;18.58;;
25381;SDS011;16307;42.896;20.874;2022-09-09T06:09:32;25.50;;;15.40;;
25381;SDS011;16307;42.896;20.874;2022-09-09T06:12:17;24.70;;;14.50;;
25381;SDS011;16307;42.896;20.874;2022-09-09T06:15:04;28.88;;;14.85;;
25381;SDS011;16307;42.896;20.874;2022-09-09T06:17:54;23.08;;;13.80;;
25381;SDS011;16307;42.896;20.874;2022-09-09T06:20:40;18.38;;;11.68;;
25381;SDS011;16307;42.896;20.874;2022-09-09T06:23:27;21.50;;;10.52;;
25381;SDS011;16307;42.896;20.874;2022-09-09T06:26:18;18.30;;;9.75;;
25381;SDS011;16307;42.896;20.874;2022-09-09T06:29:07;21.42;;;8.95;;
25381;SDS011;16307;42.896;20.874;2022-09-09T06:31:55;16.65;;;8.93;;
25381;SDS011;16307;42.896;20.874;2022-09-09T06:34:44;20.00;;;9.57;;
25381;SDS011;16307;42.896;20.874;2022-09-09T06:37:30;18.02;;;10.20;;
25381;SDS011;16307;42.896;20.874;2022-09-09T06:40:17;23.10;;;9.20;;
25381;SDS011;16307;42.896;20.874;2022-09-09T06:43:03;19.02;;;9.45;;
25381;SDS011;16307;42.896;20.874;2022-09-09T06:46:02;16.17;;;9.65;;
25381;SDS011;16307;42.896;20.874;2022-09-09T06:48:59;15.10;;;9.52;;
25381;SDS011;16307;42.896;20.874;2022-09-09T06:51:45;14.93;;;8.90;;
25381;SDS011;16307;42.896;20.874;2022-09-09T06:54:32;17.00;;;9.45;;
25381;SDS011;16307;42.896;20.874;2022-09-09T06:57:19;16.65;;;9.40;;
25381;SDS011;16307;42.896;20.874;2022-09-09T07:00:23;16.60;;;10.20;;
25381;SDS011;16307;42.896;20.874;2022-09-09T07:03:10;14.88;;;9.57;;
25381;SDS011;16307;42.896;20.874;2022-09-09T07:05:57;19.75;;;9.77;;
25381;SDS011;16307;42.896;20.874;2022-09-09T07:08:52;16.88;;;10.25;;
25381;SDS011;16307;42.896;20.874;2022-09-09T07:11:46;15.63;;;9.68;;
25381;SDS011;16307;42.896;20.874;2022-09-09T07:14:34;16.23;;;9.65;;
25381;SDS011;16307;42.896;20.874;2022-09-09T07:17:26;14.10;;;9.13;;
25381;SDS011;16307;42.896;20.874;2022-09-09T07:20:15;13.70;;;8.95;;
25381;SDS011;16307;42.896;20.874;2022-09-09T07:23:02;13.20;;;8.93;;
25381;SDS011;16307;42.896;20.874;2022-09-09T07:25:49;20.52;;;11.18;;
25381;SDS011;16307;42.896;20.874;2022-09-09T07:28:36;17.30;;;9.68;;
25381;SDS011;16307;42.896;20.874;2022-09-09T07:31:30;14.40;;;8.95;;
25381;SDS011;16307;42.896;20.874;2022-09-09T07:34:25;22.27;;;10.13;;
25381;SDS011;16307;42.896;20.874;2022-09-09T07:37:11;16.00;;;10.38;;
25381;SDS011;16307;42.896;20.874;2022-09-09T07:40:01;17.85;;;9.27;;
25381;SDS011;16307;42.896;20.874;2022-09-09T07:42:48;14.95;;;9.10;;
25381;SDS011;16307;42.896;20.874;2022-09-09T07:45:35;14.45;;;8.73;;
25381;SDS011;16307;42.896;20.874;2022-09-09T07:48:21;19.67;;;8.85;;
25381;SDS011;16307;42.896;20.874;2022-09-09T07:51:08;22.45;;;9.25;;
25381;SDS011;16307;42.896;20.874;2022-09-09T07:53:57;20.92;;;11.32;;
25381;SDS011;16307;42.896;20.874;2022-09-09T07:56:45;17.20;;;10.27;;
25381;SDS011;16307;42.896;20.874;2022-09-09T07:59:32;16.40;;;8.70;;
25381;SDS011;16307;42.896;20.874;2022-09-09T08:02:19;20.65;;;10.32;;
25381;SDS011;16307;42.896;20.874;2022-09-09T08:05:05;16.70;;;9.60;;
25381;SDS011;16307;42.896;20.874;2022-09-09T08:07:52;14.95;;;9.98;;
25381;SDS011;16307;42.896;20.874;2022-09-09T08:10:38;48.97;;;25.35;;
25381;SDS011;16307;42.896;20.874;2022-09-09T08:13:24;19.58;;;12.10;;
25381;SDS011;16307;42.896;20.874;2022-09-09T08:16:12;20.23;;;11.18;;
25381;SDS011;16307;42.896;20.874;2022-09-09T08:19:01;13.90;;;9.27;;
25381;SDS011;16307;42.896;20.874;2022-09-09T08:21:48;18.40;;;9.98;;
25381;SDS011;16307;42.896;20.874;2022-09-09T08:24:34;15.82;;;9.95;;
25381;SDS011;16307;42.896;20.874;2022-09-09T08:27:21;17.35;;;9.57;;
25381;SDS011;16307;42.896;20.874;2022-09-09T08:30:09;19.75;;;9.48;;
25381;SDS011;16307;42.896;20.874;2022-09-09T08:32:58;18.65;;;10.30;;
25381;SDS011;16307;42.896;20.874;2022-09-09T08:35:49;21.20;;;10.18;;
25381;SDS011;16307;42.896;20.874;2022-09-09T08:38:37;16.45;;;11.48;;
25381;SDS011;16307;42.896;20.874;2022-09-09T08:47:57;21.45;;;13.57;;
25381;SDS011;16307;42.896;20.874;2022-09-09T08:50:50;26.95;;;15.10;;
25381;SDS011;16307;42.896;20.874;2022-09-09T08:53:49;20.45;;;13.02;;
25381;SDS011;16307;42.896;20.874;2022-09-09T08:56:42;27.10;;;14.98;;
25381;SDS011;16307;42.896;20.874;2022-09-09T08:59:31;28.42;;;15.23;;
25381;SDS011;16307;42.896;20.874;2022-09-09T09:02:18;27.35;;;16.38;;
25381;SDS011;16307;42.896;20.874;2022-09-09T09:05:23;30.38;;;16.73;;
25381;SDS011;16307;42.896;20.874;2022-09-09T09:08:26;29.88;;;16.48;;
25381;SDS011;16307;42.896;20.874;2022-09-09T09:11:14;21.38;;;13.80;;
25381;SDS011;16307;42.896;20.874;2022-09-09T09:14:20;22.73;;;13.23;;
25381;SDS011;16307;42.896;20.874;2022-09-09T09:17:16;23.15;;;13.52;;
25381;SDS011;16307;42.896;20.874;2022-09-09T09:20:11;22.48;;;13.20;;
25381;SDS011;16307;42.896;20.874;2022-09-09T09:22:58;30.63;;;16.05;;
25381;SDS011;16307;42.896;20.874;2022-09-09T09:25:46;24.38;;;14.95;;
25381;SDS011;16307;42.896;20.874;2022-09-09T09:28:33;25.45;;;16.02;;
25381;SDS011;16307;42.896;20.874;2022-09-09T09:31:27;26.65;;;15.23;;
25381;SDS011;16307;42.896;20.874;2022-09-09T09:34:13;25.25;;;13.82;;
25381;SDS011;16307;42.896;20.874;2022-09-09T09:36:59;19.13;;;12.32;;
25381;SDS011;16307;42.896;20.874;2022-09-09T09:39:49;23.70;;;13.65;;
25381;SDS011;16307;42.896;20.874;2022-09-09T09:42:52;29.98;;;15.10;;
25381;SDS011;16307;42.896;20.874;2022-09-09T09:45:43;28.15;;;15.25;;
25381;SDS011;16307;42.896;20.874;2022-09-09T09:48:57;28.05;;;14.85;;
25381;SDS011;16307;42.896;20.874;2022-09-09T09:51:52;29.27;;;14.90;;
25381;SDS011;16307;42.896;20.874;2022-09-09T09:54:39;22.80;;;13.60;;
25381;SDS011;16307;42.896;20.874;2022-09-09T09:57:30;25.08;;;14.57;;
25381;SDS011;16307;42.896;20.874;2022-09-09T10:00:21;27.77;;;13.55;;
25381;SDS011;16307;42.896;20.874;2022-09-09T10:03:21;25.85;;;13.43;;
25381;SDS011;16307;42.896;20.874;2022-09-09T10:06:09;23.83;;;13.40;;
25381;SDS011;16307;42.896;20.874;2022-09-09T10:08:55;21.85;;;13.65;;
25381;SDS011;16307;42.896;20.874;2022-09-09T10:36:30;18.33;;;12.10;;
25381;SDS011;16307;42.896;20.874;2022-09-09T10:42:09;20.42;;;12.25;;
25381;SDS011;16307;42.896;20.874;2022-09-09T10:54:13;20.95;;;11.57;;
25381;SDS011;16307;42.896;20.874;2022-09-09T10:57:13;19.80;;;11.38;;
25381;SDS011;16307;42.896;20.874;2022-09-09T11:00:13;23.10;;;13.82;;
25381;SDS011;16307;42.896;20.874;2022-09-09T11:03:26;26.45;;;13.88;;
25381;SDS011;16307;42.896;20.874;2022-09-09T11:06:16;25.97;;;15.40;;
25381;SDS011;16307;42.896;20.874;2022-09-09T11:09:05;38.20;;;21.58;;
25381;SDS011;16307;42.896;20.874;2022-09-09T11:11:53;31.73;;;17.70;;
25381;SDS011;16307;42.896;20.874;2022-09-09T11:14:44;23.15;;;13.05;;
25381;SDS011;16307;42.896;20.874;2022-09-09T11:17:39;20.17;;;12.27;;
25381;SDS011;16307;42.896;20.874;2022-09-09T11:20:32;18.70;;;11.27;;
25381;SDS011;16307;42.896;20.874;2022-09-09T11:23:29;20.17;;;11.45;;
25381;SDS011;16307;42.896;20.874;2022-09-09T11:26:37;26.83;;;12.32;;
25381;SDS011;16307;42.896;20.874;2022-09-09T11:32:44;23.98;;;14.68;;
25381;SDS011;16307;42.896;20.874;2022-09-09T11:38:53;26.23;;;14.48;;
25381;SDS011;16307;42.896;20.874;2022-09-09T11:41:46;28.85;;;16.67;;
25381;SDS011;16307;42.896;20.874;2022-09-09T11:44:31;55.65;;;30.83;;
25381;SDS011;16307;42.896;20.874;2022-09-09T11:47:28;26.80;;;15.75;;
25381;SDS011;16307;42.896;20.874;2022-09-09T11:53:05;24.48;;;14.35;;
25381;SDS011;16307;42.896;20.874;2022-09-09T11:56:01;19.42;;;10.15;;
25381;SDS011;16307;42.896;20.874;2022-09-09T11:59:05;15.75;;;9.85;;
25381;SDS011;16307;42.896;20.874;2022-09-09T12:02:08;14.45;;;8.88;;
25381;SDS011;16307;42.896;20.874;2022-09-09T12:05:08;12.88;;;8.40;;
25381;SDS011;16307;42.896;20.874;2022-09-09T12:07:59;14.60;;;9.57;;
25381;SDS011;16307;42.896;20.874;2022-09-09T12:10:57;15.15;;;9.55;;
25381;SDS011;16307;42.896;20.874;2022-09-09T12:13:52;27.15;;;14.70;;
25381;SDS011;16307;42.896;20.874;2022-09-09T12:16:42;19.10;;;12.20;;
25381;SDS011;16307;42.896;20.874;2022-09-09T12:19:28;18.08;;;11.10;;
25381;SDS011;16307;42.896;20.874;2022-09-09T12:22:17;14.40;;;8.32;;
25381;SDS011;16307;42.896;20.874;2022-09-09T12:28:17;17.42;;;7.95;;
25381;SDS011;16307;42.896;20.874;2022-09-09T12:31:06;18.30;;;8.93;;
25381;SDS011;16307;42.896;20.874;2022-09-09T12:34:02;26.48;;;13.75;;
25381;SDS011;16307;42.896;20.874;2022-09-09T12:43:18;17.75;;;10.43;;
25381;SDS011;16307;42.896;20.874;2022-09-09T12:46:07;16.50;;;10.00;;
25381;SDS011;16307;42.896;20.874;2022-09-09T12:48:54;16.08;;;9.68;;
25381;SDS011;16307;42.896;20.874;2022-09-09T12:51:41;19.60;;;10.15;;
25381;SDS011;16307;42.896;20.874;2022-09-09T12:54:29;20.65;;;11.52;;
25381;SDS011;16307;42.896;20.874;2022-09-09T12:57:15;20.58;;;11.90;;
25381;SDS011;16307;42.896;20.874;2022-09-09T13:00:12;15.23;;;9.95;;
25381;SDS011;16307;42.896;20.874;2022-09-09T13:03:02;14.40;;;9.82;;
25381;SDS011;16307;42.896;20.874;2022-09-09T13:06:10;26.95;;;17.08;;
25381;SDS011;16307;42.896;20.874;2022-09-09T13:08:58;20.33;;;13.48;;
25381;SDS011;16307;42.896;20.874;2022-09-09T13:11:48;21.65;;;12.93;;
25381;SDS011;16307;42.896;20.874;2022-09-09T13:14:36;16.15;;;9.77;;
25381;SDS011;16307;42.896;20.874;2022-09-09T13:17:26;14.77;;;8.98;;
25381;SDS011;16307;42.896;20.874;2022-09-09T13:20:18;16.52;;;8.70;;
25381;SDS011;16307;42.896;20.874;2022-09-09T13:23:05;12.05;;;8.15;;
25381;SDS011;16307;42.896;20.874;2022-09-09T13:25:58;22.80;;;11.38;;
25381;SDS011;16307;42.896;20.874;2022-09-09T13:28:46;18.15;;;10.35;;
25381;SDS011;16307;42.896;20.874;2022-09-09T13:31:33;20.92;;;10.73;;
25381;SDS011;16307;42.896;20.874;2022-09-09T13:34:31;28.42;;;13.77;;
25381;SDS011;16307;42.896;20.874;2022-09-09T13:40:20;13.35;;;9.35;;
25381;SDS011;16307;42.896;20.874;2022-09-09T13:43:13;13.38;;;8.80;;
25381;SDS011;16307;42.896;20.874;2022-09-09T13:46:03;21.23;;;10.15;;
25381;SDS011;16307;42.896;20.874;2022-09-09T13:48:58;12.45;;;8.77;;
25381;SDS011;16307;42.896;20.874;2022-09-09T13:52:02;15.05;;;7.82;;
25381;SDS011;16307;42.896;20.874;2022-09-09T13:54:50;16.33;;;10.00;;
25381;SDS011;16307;42.896;20.874;2022-09-09T13:57:37;15.15;;;9.95;;
25381;SDS011;16307;42.896;20.874;2022-09-09T14:00:23;20.13;;;12.13;;
25381;SDS011;16307;42.896;20.874;2022-09-09T14:03:10;18.08;;;9.77;;
25381;SDS011;16307;42.896;20.874;2022-09-09T14:05:56;24.98;;;10.73;;
25381;SDS011;16307;42.896;20.874;2022-09-09T14:08:43;19.15;;;10.98;;
25381;SDS011;16307;42.896;20.874;2022-09-09T14:11:31;15.88;;;10.48;;
25381;SDS011;16307;42.896;20.874;2022-09-09T14:14:17;19.75;;;11.68;;
25381;SDS011;16307;42.896;20.874;2022-09-09T14:17:04;32.80;;;17.63;;
25381;SDS011;16307;42.896;20.874;2022-09-09T14:19:52;36.50;;;20.48;;
25381;SDS011;16307;42.896;20.874;2022-09-09T14:22:38;34.70;;;20.45;;
25381;SDS011;16307;42.896;20.874;2022-09-09T14:25:27;30.27;;;18.42;;
25381;SDS011;16307;42.896;20.874;2022-09-09T14:28:14;21.33;;;13.82;;
25381;SDS011;16307;42.896;20.874;2022-09-09T14:31:01;22.95;;;15.23;;
25381;SDS011;16307;42.896;20.874;2022-09-09T14:33:48;23.02;;;13.70;;
25381;SDS011;16307;42.896;20.874;2022-09-09T14:36:34;26.42;;;15.23;;
25381;SDS011;16307;42.896;20.874;2022-09-09T14:39:19;31.48;;;18.23;;
25381;SDS011;16307;42.896;20.874;2022-09-09T14:42:06;25.58;;;15.00;;
25381;SDS011;16307;42.896;20.874;2022-09-09T14:44:52;21.45;;;11.45;;
25381;SDS011;16307;42.896;20.874;2022-09-09T14:47:39;22.13;;;10.82;;
25381;SDS011;16307;42.896;20.874;2022-09-09T14:50:25;18.98;;;9.77;;
25381;SDS011;16307;42.896;20.874;2022-09-09T14:53:11;15.10;;;9.00;;
25381;SDS011;16307;42.896;20.874;2022-09-09T14:56:08;15.52;;;8.95;;
25381;SDS011;16307;42.896;20.874;2022-09-09T14:58:56;17.13;;;9.32;;
25381;SDS011;16307;42.896;20.874;2022-09-09T15:01:44;15.95;;;9.10;;
25381;SDS011;16307;42.896;20.874;2022-09-09T15:04:29;11.50;;;8.60;;
25381;SDS011;16307;42.896;20.874;2022-09-09T15:07:16;20.65;;;9.82;;
25381;SDS011;16307;42.896;20.874;2022-09-09T15:10:05;19.30;;;12.48;;
25381;SDS011;16307;42.896;20.874;2022-09-09T15:12:52;23.45;;;14.60;;
25381;SDS011;16307;42.896;20.874;2022-09-09T15:15:38;18.23;;;10.10;;
25381;SDS011;16307;42.896;20.874;2022-09-09T15:18:25;13.90;;;8.40;;
25381;SDS011;16307;42.896;20.874;2022-09-09T15:21:11;16.80;;;9.85;;
25381;SDS011;16307;42.896;20.874;2022-09-09T15:23:59;32.60;;;20.65;;
25381;SDS011;16307;42.896;20.874;2022-09-09T15:26:45;25.05;;;14.48;;
25381;SDS011;16307;42.896;20.874;2022-09-09T15:29:31;24.05;;;12.30;;
25381;SDS011;16307;42.896;20.874;2022-09-09T15:32:17;17.30;;;10.77;;
25381;SDS011;16307;42.896;20.874;2022-09-09T15:35:03;18.75;;;11.25;;
25381;SDS011;16307;42.896;20.874;2022-09-09T15:37:49;20.50;;;12.18;;
25381;SDS011;16307;42.896;20.874;2022-09-09T15:40:35;21.33;;;11.40;;
25381;SDS011;16307;42.896;20.874;2022-09-09T15:43:21;16.75;;;10.57;;
25381;SDS011;16307;42.896;20.874;2022-09-09T15:46:21;13.73;;;9.10;;
25381;SDS011;16307;42.896;20.874;2022-09-09T15:52:11;17.23;;;8.35;;
25381;SDS011;16307;42.896;20.874;2022-09-09T15:54:57;18.67;;;11.25;;
25381;SDS011;16307;42.896;20.874;2022-09-09T15:57:45;16.08;;;10.38;;
25381;SDS011;16307;42.896;20.874;2022-09-09T16:00:33;16.02;;;9.90;;
25381;SDS011;16307;42.896;20.874;2022-09-09T16:03:19;15.27;;;9.68;;
25381;SDS011;16307;42.896;20.874;2022-09-09T16:06:06;16.92;;;8.98;;
25381;SDS011;16307;42.896;20.874;2022-09-09T16:08:52;14.07;;;9.65;;
25381;SDS011;16307;42.896;20.874;2022-09-09T16:11:39;14.68;;;9.20;;
25381;SDS011;16307;42.896;20.874;2022-09-09T16:14:25;12.32;;;7.75;;
25381;SDS011;16307;42.896;20.874;2022-09-09T16:17:11;18.20;;;7.82;;
25381;SDS011;16307;42.896;20.874;2022-09-09T16:19:57;13.52;;;8.18;;
25381;SDS011;16307;42.896;20.874;2022-09-09T16:22:43;15.10;;;9.70;;
25381;SDS011;16307;42.896;20.874;2022-09-09T16:25:29;14.27;;;9.50;;
25381;SDS011;16307;42.896;20.874;2022-09-09T16:28:15;17.25;;;10.52;;
25381;SDS011;16307;42.896;20.874;2022-09-09T16:31:04;21.88;;;11.10;;
25381;SDS011;16307;42.896;20.874;2022-09-09T16:33:51;19.58;;;11.50;;
25381;SDS011;16307;42.896;20.874;2022-09-09T16:36:38;15.07;;;8.95;;
25381;SDS011;16307;42.896;20.874;2022-09-09T16:39:26;19.98;;;10.25;;
25381;SDS011;16307;42.896;20.874;2022-09-09T16:42:11;20.13;;;12.27;;
25381;SDS011;16307;42.896;20.874;2022-09-09T16:44:57;17.30;;;10.07;;
25381;SDS011;16307;42.896;20.874;2022-09-09T16:47:43;16.35;;;9.90;;
25381;SDS011;16307;42.896;20.874;2022-09-09T16:50:30;20.52;;;10.73;;
25381;SDS011;16307;42.896;20.874;2022-09-09T16:53:16;17.05;;;9.20;;
25381;SDS011;16307;42.896;20.874;2022-09-09T16:56:12;15.07;;;9.95;;
25381;SDS011;16307;42.896;20.874;2022-09-09T16:59:00;20.95;;;13.02;;
25381;SDS011;16307;42.896;20.874;2022-09-09T17:01:48;19.73;;;12.00;;
25381;SDS011;16307;42.896;20.874;2022-09-09T17:04:35;20.70;;;12.10;;
25381;SDS011;16307;42.896;20.874;2022-09-09T17:07:21;22.02;;;14.18;;
25381;SDS011;16307;42.896;20.874;2022-09-09T17:10:08;22.70;;;11.23;;
25381;SDS011;16307;42.896;20.874;2022-09-09T17:12:54;26.67;;;15.20;;
25381;SDS011;16307;42.896;20.874;2022-09-09T17:15:41;17.23;;;11.23;;
25381;SDS011;16307;42.896;20.874;2022-09-09T17:18:28;20.92;;;10.88;;
25381;SDS011;16307;42.896;20.874;2022-09-09T17:21:15;22.25;;;12.18;;
25381;SDS011;16307;42.896;20.874;2022-09-09T17:24:03;18.27;;;11.48;;
25381;SDS011;16307;42.896;20.874;2022-09-09T17:26:50;29.35;;;16.05;;
25381;SDS011;16307;42.896;20.874;2022-09-09T17:29:36;20.95;;;12.63;;
25381;SDS011;16307;42.896;20.874;2022-09-09T17:32:22;17.77;;;11.25;;
25381;SDS011;16307;42.896;20.874;2022-09-09T17:35:08;24.65;;;12.70;;
25381;SDS011;16307;42.896;20.874;2022-09-09T17:37:54;22.77;;;14.35;;
25381;SDS011;16307;42.896;20.874;2022-09-09T17:40:40;23.48;;;12.80;;
25381;SDS011;16307;42.896;20.874;2022-09-09T17:43:27;20.30;;;11.90;;
25381;SDS011;16307;42.896;20.874;2022-09-09T17:46:15;19.15;;;12.48;;
25381;SDS011;16307;42.896;20.874;2022-09-09T17:49:07;18.70;;;12.15;;
25381;SDS011;16307;42.896;20.874;2022-09-09T17:51:57;21.55;;;11.93;;
25381;SDS011;16307;42.896;20.874;2022-09-09T17:54:44;17.67;;;11.65;;
25381;SDS011;16307;42.896;20.874;2022-09-09T17:57:30;19.10;;;12.30;;
25381;SDS011;16307;42.896;20.874;2022-09-09T18:00:16;22.45;;;12.02;;
25381;SDS011;16307;42.896;20.874;2022-09-09T18:03:03;24.55;;;13.30;;
25381;SDS011;16307;42.896;20.874;2022-09-09T18:05:49;22.42;;;14.75;;
25381;SDS011;16307;42.896;20.874;2022-09-09T18:08:35;15.63;;;10.35;;
25381;SDS011;16307;42.896;20.874;2022-09-09T18:11:22;11.85;;;7.30;;
25381;SDS011;16307;42.896;20.874;2022-09-09T18:14:11;15.73;;;9.93;;
25381;SDS011;16307;42.896;20.874;2022-09-09T18:17:03;16.50;;;10.43;;
25381;SDS011;16307;42.896;20.874;2022-09-09T18:19:49;10.73;;;7.68;;
25381;SDS011;16307;42.896;20.874;2022-09-09T18:22:35;14.38;;;7.20;;
25381;SDS011;16307;42.896;20.874;2022-09-09T18:25:21;11.80;;;7.95;;